sensor_id;sensor_type;location;lat;lon;timestamp;P1;durP1;ratioP1;P2;durP2;ratioP2
18251;SDS011;26917;52.328;20.878;2022-07-10T00:01:07;5.20;;;4.53;;
18251;SDS011;26917;52.328;20.878;2022-07-10T00:03:36;5.45;;;4.95;;
18251;SDS011;26917;52.328;20.878;2022-07-10T00:06:04;6.15;;;5.38;;
18251;SDS011;26917;52.328;20.878;2022-07-10T00:08:33;5.20;;;4.68;;
18251;SDS011;26917;52.328;20.878;2022-07-10T00:11:04;4.60;;;4.22;;
18251;SDS011;26917;52.328;20.878;2022-07-10T00:13:33;4.93;;;4.53;;
18251;SDS011;26917;52.328;20.878;2022-07-10T00:16:01;5.93;;;4.95;;
18251;SDS011;26917;52.328;20.878;2022-07-10T00:18:30;8.98;;;5.97;;
18251;SDS011;26917;52.328;20.878;2022-07-10T00:20:58;5.47;;;4.97;;
18251;SDS011;26917;52.328;20.878;2022-07-10T00:23:27;5.55;;;4.25;;
18251;SDS011;26917;52.328;20.878;2022-07-10T00:25:55;7.90;;;4.45;;
18251;SDS011;26917;52.328;20.878;2022-07-10T00:28:25;5.00;;;4.38;;
18251;SDS011;26917;52.328;20.878;2022-07-10T00:30:53;5.15;;;4.63;;
18251;SDS011;26917;52.328;20.878;2022-07-10T00:33:21;5.35;;;3.70;;
18251;SDS011;26917;52.328;20.878;2022-07-10T00:35:50;7.72;;;4.72;;
18251;SDS011;26917;52.328;20.878;2022-07-10T00:38:18;8.68;;;4.90;;
18251;SDS011;26917;52.328;20.878;2022-07-10T00:40:47;8.68;;;4.30;;
18251;SDS011;26917;52.328;20.878;2022-07-10T00:43:15;4.47;;;4.07;;
18251;SDS011;26917;52.328;20.878;2022-07-10T00:45:45;5.22;;;4.75;;
18251;SDS011;26917;52.328;20.878;2022-07-10T00:48:13;5.35;;;4.88;;
18251;SDS011;26917;52.328;20.878;2022-07-10T00:50:42;6.25;;;5.70;;
18251;SDS011;26917;52.328;20.878;2022-07-10T00:53:12;7.68;;;4.40;;
18251;SDS011;26917;52.328;20.878;2022-07-10T00:55:41;6.40;;;4.43;;
18251;SDS011;26917;52.328;20.878;2022-07-10T00:58:11;5.13;;;4.63;;
18251;SDS011;26917;52.328;20.878;2022-07-10T01:00:40;5.88;;;4.50;;
18251;SDS011;26917;52.328;20.878;2022-07-10T01:03:10;5.07;;;4.28;;
18251;SDS011;26917;52.328;20.878;2022-07-10T01:05:38;4.72;;;4.32;;
18251;SDS011;26917;52.328;20.878;2022-07-10T01:08:07;4.95;;;4.53;;
18251;SDS011;26917;52.328;20.878;2022-07-10T01:10:35;4.97;;;4.47;;
18251;SDS011;26917;52.328;20.878;2022-07-10T01:13:05;5.05;;;4.65;;
18251;SDS011;26917;52.328;20.878;2022-07-10T01:15:34;4.70;;;4.30;;
18251;SDS011;26917;52.328;20.878;2022-07-10T01:18:03;5.15;;;4.63;;
18251;SDS011;26917;52.328;20.878;2022-07-10T01:20:33;4.88;;;4.28;;
18251;SDS011;26917;52.328;20.878;2022-07-10T01:23:04;6.88;;;4.68;;
18251;SDS011;26917;52.328;20.878;2022-07-10T01:25:32;6.78;;;4.35;;
18251;SDS011;26917;52.328;20.878;2022-07-10T01:28:01;5.28;;;4.80;;
18251;SDS011;26917;52.328;20.878;2022-07-10T01:30:29;5.53;;;5.03;;
18251;SDS011;26917;52.328;20.878;2022-07-10T01:32:57;4.75;;;4.35;;
18251;SDS011;26917;52.328;20.878;2022-07-10T01:35:26;5.38;;;4.15;;
18251;SDS011;26917;52.328;20.878;2022-07-10T01:37:54;5.53;;;4.60;;
18251;SDS011;26917;52.328;20.878;2022-07-10T01:40:24;5.22;;;4.72;;
18251;SDS011;26917;52.328;20.878;2022-07-10T01:42:52;4.97;;;4.45;;
18251;SDS011;26917;52.328;20.878;2022-07-10T01:45:20;6.53;;;5.00;;
18251;SDS011;26917;52.328;20.878;2022-07-10T01:47:49;5.95;;;4.57;;
18251;SDS011;26917;52.328;20.878;2022-07-10T01:50:17;5.93;;;4.50;;
18251;SDS011;26917;52.328;20.878;2022-07-10T01:52:45;4.82;;;4.43;;
18251;SDS011;26917;52.328;20.878;2022-07-10T01:55:14;7.35;;;4.65;;
18251;SDS011;26917;52.328;20.878;2022-07-10T01:57:43;9.40;;;5.13;;
18251;SDS011;26917;52.328;20.878;2022-07-10T02:00:14;7.82;;;4.55;;
18251;SDS011;26917;52.328;20.878;2022-07-10T02:02:42;7.95;;;4.28;;
18251;SDS011;26917;52.328;20.878;2022-07-10T02:05:31;4.45;;;4.05;;
18251;SDS011;26917;52.328;20.878;2022-07-10T02:07:59;5.35;;;4.72;;
18251;SDS011;26917;52.328;20.878;2022-07-10T02:10:29;7.72;;;4.47;;
18251;SDS011;26917;52.328;20.878;2022-07-10T02:12:59;10.75;;;4.15;;
18251;SDS011;26917;52.328;20.878;2022-07-10T02:15:27;5.10;;;4.03;;
18251;SDS011;26917;52.328;20.878;2022-07-10T02:17:56;4.53;;;4.13;;
18251;SDS011;26917;52.328;20.878;2022-07-10T02:20:24;5.28;;;3.92;;
18251;SDS011;26917;52.328;20.878;2022-07-10T02:22:52;7.57;;;5.10;;
18251;SDS011;26917;52.328;20.878;2022-07-10T02:25:21;6.07;;;4.20;;
18251;SDS011;26917;52.328;20.878;2022-07-10T02:27:49;7.10;;;4.60;;
18251;SDS011;26917;52.328;20.878;2022-07-10T02:30:19;5.20;;;4.38;;
18251;SDS011;26917;52.328;20.878;2022-07-10T02:32:47;7.25;;;4.63;;
18251;SDS011;26917;52.328;20.878;2022-07-10T02:35:16;4.82;;;4.32;;
18251;SDS011;26917;52.328;20.878;2022-07-10T02:37:44;4.63;;;4.25;;
18251;SDS011;26917;52.328;20.878;2022-07-10T02:40:13;5.32;;;4.78;;
18251;SDS011;26917;52.328;20.878;2022-07-10T02:42:41;9.27;;;4.55;;
18251;SDS011;26917;52.328;20.878;2022-07-10T02:45:09;8.02;;;4.68;;
18251;SDS011;26917;52.328;20.878;2022-07-10T02:47:39;5.30;;;4.57;;
18251;SDS011;26917;52.328;20.878;2022-07-10T02:50:08;5.55;;;5.03;;
18251;SDS011;26917;52.328;20.878;2022-07-10T02:52:36;6.35;;;4.97;;
18251;SDS011;26917;52.328;20.878;2022-07-10T02:55:05;5.75;;;3.80;;
18251;SDS011;26917;52.328;20.878;2022-07-10T02:57:34;4.63;;;4.25;;
18251;SDS011;26917;52.328;20.878;2022-07-10T03:00:03;6.05;;;5.25;;
18251;SDS011;26917;52.328;20.878;2022-07-10T03:02:32;7.60;;;4.75;;
18251;SDS011;26917;52.328;20.878;2022-07-10T03:05:02;5.70;;;4.72;;
18251;SDS011;26917;52.328;20.878;2022-07-10T03:07:31;4.95;;;4.53;;
18251;SDS011;26917;52.328;20.878;2022-07-10T03:09:59;4.47;;;4.07;;
18251;SDS011;26917;52.328;20.878;2022-07-10T03:12:28;8.85;;;4.30;;
18251;SDS011;26917;52.328;20.878;2022-07-10T03:14:56;18.10;;;5.90;;
18251;SDS011;26917;52.328;20.878;2022-07-10T03:17:25;5.90;;;5.32;;
18251;SDS011;26917;52.328;20.878;2022-07-10T03:19:54;9.40;;;4.75;;
18251;SDS011;26917;52.328;20.878;2022-07-10T03:22:23;5.30;;;4.88;;
18251;SDS011;26917;52.328;20.878;2022-07-10T03:24:52;6.80;;;4.47;;
18251;SDS011;26917;52.328;20.878;2022-07-10T03:27:20;6.65;;;4.93;;
18251;SDS011;26917;52.328;20.878;2022-07-10T03:29:48;6.38;;;4.18;;
18251;SDS011;26917;52.328;20.878;2022-07-10T03:32:16;5.18;;;4.65;;
18251;SDS011;26917;52.328;20.878;2022-07-10T03:34:45;4.75;;;4.38;;
18251;SDS011;26917;52.328;20.878;2022-07-10T03:37:13;4.75;;;4.32;;
18251;SDS011;26917;52.328;20.878;2022-07-10T03:39:43;5.05;;;4.47;;
18251;SDS011;26917;52.328;20.878;2022-07-10T03:42:11;10.23;;;5.00;;
18251;SDS011;26917;52.328;20.878;2022-07-10T03:44:40;4.60;;;4.07;;
18251;SDS011;26917;52.328;20.878;2022-07-10T03:47:08;6.80;;;4.78;;
18251;SDS011;26917;52.328;20.878;2022-07-10T03:49:37;20.48;;;5.18;;
18251;SDS011;26917;52.328;20.878;2022-07-10T03:52:06;5.60;;;5.10;;
18251;SDS011;26917;52.328;20.878;2022-07-10T03:54:35;5.07;;;4.68;;
18251;SDS011;26917;52.328;20.878;2022-07-10T03:57:05;6.82;;;5.03;;
18251;SDS011;26917;52.328;20.878;2022-07-10T03:59:50;5.65;;;4.63;;
18251;SDS011;26917;52.328;20.878;2022-07-10T04:02:19;4.78;;;4.38;;
18251;SDS011;26917;52.328;20.878;2022-07-10T04:04:47;6.28;;;5.30;;
18251;SDS011;26917;52.328;20.878;2022-07-10T04:07:15;6.88;;;4.53;;
18251;SDS011;26917;52.328;20.878;2022-07-10T04:09:44;4.95;;;4.55;;
18251;SDS011;26917;52.328;20.878;2022-07-10T04:12:13;5.25;;;4.75;;
18251;SDS011;26917;52.328;20.878;2022-07-10T04:14:42;8.18;;;4.95;;
18251;SDS011;26917;52.328;20.878;2022-07-10T04:17:10;5.15;;;4.65;;
18251;SDS011;26917;52.328;20.878;2022-07-10T04:19:39;5.35;;;4.82;;
18251;SDS011;26917;52.328;20.878;2022-07-10T04:22:07;6.10;;;4.88;;
18251;SDS011;26917;52.328;20.878;2022-07-10T04:24:35;5.38;;;4.38;;
18251;SDS011;26917;52.328;20.878;2022-07-10T04:27:04;7.97;;;4.88;;
18251;SDS011;26917;52.328;20.878;2022-07-10T04:29:34;4.70;;;4.30;;
18251;SDS011;26917;52.328;20.878;2022-07-10T04:32:03;5.47;;;4.95;;
18251;SDS011;26917;52.328;20.878;2022-07-10T04:34:32;5.40;;;4.90;;
18251;SDS011;26917;52.328;20.878;2022-07-10T04:37:00;4.85;;;4.45;;
18251;SDS011;26917;52.328;20.878;2022-07-10T04:39:29;6.40;;;3.85;;
18251;SDS011;26917;52.328;20.878;2022-07-10T04:41:57;5.60;;;4.07;;
18251;SDS011;26917;52.328;20.878;2022-07-10T04:44:25;5.20;;;4.30;;
18251;SDS011;26917;52.328;20.878;2022-07-10T04:46:55;5.07;;;4.18;;
18251;SDS011;26917;52.328;20.878;2022-07-10T04:49:24;4.47;;;4.07;;
18251;SDS011;26917;52.328;20.878;2022-07-10T04:51:52;7.75;;;4.28;;
18251;SDS011;26917;52.328;20.878;2022-07-10T04:54:21;9.45;;;4.45;;
18251;SDS011;26917;52.328;20.878;2022-07-10T04:56:49;11.43;;;4.35;;
18251;SDS011;26917;52.328;20.878;2022-07-10T04:59:18;4.75;;;4.03;;
18251;SDS011;26917;52.328;20.878;2022-07-10T05:01:46;5.43;;;3.30;;
18251;SDS011;26917;52.328;20.878;2022-07-10T05:04:16;5.22;;;3.95;;
18251;SDS011;26917;52.328;20.878;2022-07-10T05:06:44;5.32;;;4.07;;
18251;SDS011;26917;52.328;20.878;2022-07-10T05:09:13;4.10;;;3.70;;
18251;SDS011;26917;52.328;20.878;2022-07-10T05:11:41;4.00;;;3.45;;
18251;SDS011;26917;52.328;20.878;2022-07-10T05:14:09;5.82;;;3.53;;
18251;SDS011;26917;52.328;20.878;2022-07-10T05:16:37;4.20;;;3.30;;
18251;SDS011;26917;52.328;20.878;2022-07-10T05:19:06;5.25;;;3.83;;
18251;SDS011;26917;52.328;20.878;2022-07-10T05:21:36;6.65;;;4.57;;
18251;SDS011;26917;52.328;20.878;2022-07-10T05:24:05;6.35;;;3.70;;
18251;SDS011;26917;52.328;20.878;2022-07-10T05:26:33;5.50;;;3.53;;
18251;SDS011;26917;52.328;20.878;2022-07-10T05:29:02;5.70;;;3.90;;
18251;SDS011;26917;52.328;20.878;2022-07-10T05:31:31;3.92;;;3.45;;
18251;SDS011;26917;52.328;20.878;2022-07-10T05:34:00;3.92;;;3.40;;
18251;SDS011;26917;52.328;20.878;2022-07-10T05:36:29;4.75;;;3.42;;
18251;SDS011;26917;52.328;20.878;2022-07-10T05:38:59;7.30;;;3.60;;
18251;SDS011;26917;52.328;20.878;2022-07-10T05:41:27;4.85;;;3.47;;
18251;SDS011;26917;52.328;20.878;2022-07-10T05:43:56;6.32;;;3.15;;
18251;SDS011;26917;52.328;20.878;2022-07-10T05:46:24;4.15;;;3.33;;
18251;SDS011;26917;52.328;20.878;2022-07-10T05:49:00;8.60;;;3.35;;
18251;SDS011;26917;52.328;20.878;2022-07-10T05:51:28;4.45;;;3.38;;
18251;SDS011;26917;52.328;20.878;2022-07-10T05:54:09;6.18;;;3.00;;
18251;SDS011;26917;52.328;20.878;2022-07-10T05:56:38;4.28;;;3.30;;
18251;SDS011;26917;52.328;20.878;2022-07-10T05:59:10;6.00;;;3.50;;
18251;SDS011;26917;52.328;20.878;2022-07-10T06:01:38;6.05;;;3.20;;
18251;SDS011;26917;52.328;20.878;2022-07-10T06:04:09;5.47;;;3.38;;
18251;SDS011;26917;52.328;20.878;2022-07-10T06:06:38;4.53;;;3.20;;
18251;SDS011;26917;52.328;20.878;2022-07-10T06:09:06;8.10;;;3.80;;
18251;SDS011;26917;52.328;20.878;2022-07-10T06:11:36;6.22;;;3.50;;
18251;SDS011;26917;52.328;20.878;2022-07-10T06:14:07;6.10;;;2.97;;
18251;SDS011;26917;52.328;20.878;2022-07-10T06:16:35;10.27;;;3.65;;
18251;SDS011;26917;52.328;20.878;2022-07-10T06:19:04;4.32;;;3.53;;
18251;SDS011;26917;52.328;20.878;2022-07-10T06:21:32;4.63;;;3.25;;
18251;SDS011;26917;52.328;20.878;2022-07-10T06:24:05;5.50;;;3.80;;
18251;SDS011;26917;52.328;20.878;2022-07-10T06:26:35;4.18;;;3.28;;
18251;SDS011;26917;52.328;20.878;2022-07-10T06:29:03;3.65;;;3.00;;
18251;SDS011;26917;52.328;20.878;2022-07-10T06:31:32;7.40;;;2.90;;
18251;SDS011;26917;52.328;20.878;2022-07-10T06:34:00;6.13;;;3.30;;
18251;SDS011;26917;52.328;20.878;2022-07-10T06:36:28;8.73;;;3.65;;
18251;SDS011;26917;52.328;20.878;2022-07-10T06:38:59;4.55;;;3.58;;
18251;SDS011;26917;52.328;20.878;2022-07-10T06:41:27;8.48;;;3.67;;
18251;SDS011;26917;52.328;20.878;2022-07-10T06:43:57;7.38;;;3.78;;
18251;SDS011;26917;52.328;20.878;2022-07-10T06:46:27;6.25;;;4.03;;
18251;SDS011;26917;52.328;20.878;2022-07-10T06:48:56;7.10;;;3.95;;
18251;SDS011;26917;52.328;20.878;2022-07-10T06:51:23;9.32;;;3.83;;
18251;SDS011;26917;52.328;20.878;2022-07-10T06:53:52;6.90;;;4.00;;
18251;SDS011;26917;52.328;20.878;2022-07-10T06:56:23;8.80;;;4.78;;
18251;SDS011;26917;52.328;20.878;2022-07-10T06:58:51;6.32;;;4.88;;
18251;SDS011;26917;52.328;20.878;2022-07-10T07:01:22;6.32;;;4.72;;
18251;SDS011;26917;52.328;20.878;2022-07-10T07:03:53;5.97;;;4.38;;
18251;SDS011;26917;52.328;20.878;2022-07-10T07:06:22;5.15;;;4.05;;
18251;SDS011;26917;52.328;20.878;2022-07-10T07:08:50;6.47;;;3.88;;
18251;SDS011;26917;52.328;20.878;2022-07-10T07:11:19;6.72;;;3.72;;
18251;SDS011;26917;52.328;20.878;2022-07-10T07:13:47;10.27;;;4.25;;
18251;SDS011;26917;52.328;20.878;2022-07-10T07:16:16;4.72;;;4.32;;
18251;SDS011;26917;52.328;20.878;2022-07-10T07:18:56;11.00;;;4.22;;
18251;SDS011;26917;52.328;20.878;2022-07-10T07:21:25;4.47;;;3.72;;
18251;SDS011;26917;52.328;20.878;2022-07-10T07:24:10;7.45;;;4.30;;
18251;SDS011;26917;52.328;20.878;2022-07-10T07:26:39;6.68;;;4.05;;
18251;SDS011;26917;52.328;20.878;2022-07-10T07:29:07;5.68;;;4.00;;
18251;SDS011;26917;52.328;20.878;2022-07-10T07:31:35;4.63;;;4.18;;
18251;SDS011;26917;52.328;20.878;2022-07-10T07:34:05;5.13;;;4.13;;
18251;SDS011;26917;52.328;20.878;2022-07-10T07:36:34;6.68;;;3.75;;
18251;SDS011;26917;52.328;20.878;2022-07-10T07:39:03;4.50;;;3.33;;
18251;SDS011;26917;52.328;20.878;2022-07-10T07:41:32;5.57;;;3.38;;
18251;SDS011;26917;52.328;20.878;2022-07-10T07:44:00;11.15;;;3.72;;
18251;SDS011;26917;52.328;20.878;2022-07-10T07:46:29;8.05;;;3.58;;
18251;SDS011;26917;52.328;20.878;2022-07-10T07:48:57;11.68;;;4.13;;
18251;SDS011;26917;52.328;20.878;2022-07-10T07:51:28;7.55;;;3.90;;
18251;SDS011;26917;52.328;20.878;2022-07-10T07:53:56;11.35;;;3.47;;
18251;SDS011;26917;52.328;20.878;2022-07-10T07:56:24;6.32;;;3.40;;
18251;SDS011;26917;52.328;20.878;2022-07-10T07:58:53;5.07;;;3.33;;
18251;SDS011;26917;52.328;20.878;2022-07-10T08:01:21;7.68;;;3.13;;
18251;SDS011;26917;52.328;20.878;2022-07-10T08:03:50;6.75;;;3.30;;
18251;SDS011;26917;52.328;20.878;2022-07-10T08:06:35;4.45;;;3.67;;
18251;SDS011;26917;52.328;20.878;2022-07-10T08:09:04;7.55;;;3.80;;
18251;SDS011;26917;52.328;20.878;2022-07-10T08:11:32;5.22;;;3.63;;
18251;SDS011;26917;52.328;20.878;2022-07-10T08:14:01;4.00;;;3.55;;
18251;SDS011;26917;52.328;20.878;2022-07-10T08:16:30;5.38;;;3.97;;
18251;SDS011;26917;52.328;20.878;2022-07-10T08:18:58;4.95;;;4.00;;
18251;SDS011;26917;52.328;20.878;2022-07-10T08:21:27;4.97;;;3.70;;
18251;SDS011;26917;52.328;20.878;2022-07-10T08:23:58;5.72;;;4.43;;
18251;SDS011;26917;52.328;20.878;2022-07-10T08:26:27;4.95;;;4.35;;
18251;SDS011;26917;52.328;20.878;2022-07-10T08:28:55;5.65;;;3.55;;
18251;SDS011;26917;52.328;20.878;2022-07-10T08:31:24;6.20;;;3.47;;
18251;SDS011;26917;52.328;20.878;2022-07-10T08:33:53;8.25;;;3.63;;
18251;SDS011;26917;52.328;20.878;2022-07-10T08:36:21;5.82;;;3.20;;
18251;SDS011;26917;52.328;20.878;2022-07-10T08:39:11;5.18;;;3.47;;
18251;SDS011;26917;52.328;20.878;2022-07-10T08:41:41;7.03;;;3.20;;
18251;SDS011;26917;52.328;20.878;2022-07-10T08:44:12;6.38;;;2.50;;
18251;SDS011;26917;52.328;20.878;2022-07-10T08:46:44;3.92;;;3.13;;
18251;SDS011;26917;52.328;20.878;2022-07-10T08:49:12;3.47;;;2.92;;
18251;SDS011;26917;52.328;20.878;2022-07-10T08:51:45;5.45;;;2.92;;
18251;SDS011;26917;52.328;20.878;2022-07-10T08:54:21;6.78;;;2.67;;
18251;SDS011;26917;52.328;20.878;2022-07-10T08:56:51;3.35;;;2.30;;
18251;SDS011;26917;52.328;20.878;2022-07-10T08:59:21;4.45;;;2.30;;
18251;SDS011;26917;52.328;20.878;2022-07-10T09:01:56;5.32;;;2.63;;
18251;SDS011;26917;52.328;20.878;2022-07-10T09:04:26;5.35;;;2.78;;
18251;SDS011;26917;52.328;20.878;2022-07-10T09:06:55;7.57;;;2.67;;
18251;SDS011;26917;52.328;20.878;2022-07-10T09:09:25;3.67;;;2.75;;
18251;SDS011;26917;52.328;20.878;2022-07-10T09:11:56;7.43;;;2.58;;
18251;SDS011;26917;52.328;20.878;2022-07-10T09:14:28;4.03;;;2.47;;
18251;SDS011;26917;52.328;20.878;2022-07-10T09:17:04;4.25;;;2.33;;
18251;SDS011;26917;52.328;20.878;2022-07-10T09:19:35;9.70;;;2.55;;
18251;SDS011;26917;52.328;20.878;2022-07-10T09:22:12;2.97;;;2.10;;
18251;SDS011;26917;52.328;20.878;2022-07-10T09:24:43;6.05;;;2.30;;
18251;SDS011;26917;52.328;20.878;2022-07-10T09:27:13;2.40;;;2.10;;
18251;SDS011;26917;52.328;20.878;2022-07-10T09:29:46;3.38;;;2.67;;
18251;SDS011;26917;52.328;20.878;2022-07-10T09:32:21;4.60;;;2.15;;
18251;SDS011;26917;52.328;20.878;2022-07-10T09:34:50;3.67;;;2.47;;
18251;SDS011;26917;52.328;20.878;2022-07-10T09:37:41;4.80;;;2.63;;
18251;SDS011;26917;52.328;20.878;2022-07-10T09:40:12;3.25;;;2.70;;
18251;SDS011;26917;52.328;20.878;2022-07-10T09:42:43;4.72;;;2.25;;
18251;SDS011;26917;52.328;20.878;2022-07-10T09:45:15;3.45;;;2.05;;
18251;SDS011;26917;52.328;20.878;2022-07-10T09:47:54;13.68;;;2.60;;
18251;SDS011;26917;52.328;20.878;2022-07-10T09:50:31;5.38;;;2.67;;
18251;SDS011;26917;52.328;20.878;2022-07-10T09:53:05;5.93;;;2.55;;
18251;SDS011;26917;52.328;20.878;2022-07-10T09:55:40;5.75;;;2.50;;
18251;SDS011;26917;52.328;20.878;2022-07-10T09:58:12;8.80;;;2.35;;
18251;SDS011;26917;52.328;20.878;2022-07-10T10:00:46;3.03;;;2.40;;
18251;SDS011;26917;52.328;20.878;2022-07-10T10:03:23;4.85;;;2.35;;
18251;SDS011;26917;52.328;20.878;2022-07-10T10:06:00;6.65;;;2.10;;
18251;SDS011;26917;52.328;20.878;2022-07-10T10:08:42;2.58;;;1.90;;
18251;SDS011;26917;52.328;20.878;2022-07-10T10:11:22;12.55;;;2.50;;
18251;SDS011;26917;52.328;20.878;2022-07-10T10:14:00;2.33;;;1.92;;
18251;SDS011;26917;52.328;20.878;2022-07-10T10:16:38;3.83;;;2.00;;
18251;SDS011;26917;52.328;20.878;2022-07-10T10:19:11;2.78;;;2.10;;
18251;SDS011;26917;52.328;20.878;2022-07-10T10:21:59;3.30;;;1.98;;
18251;SDS011;26917;52.328;20.878;2022-07-10T10:24:41;5.90;;;2.50;;
18251;SDS011;26917;52.328;20.878;2022-07-10T10:30:00;4.45;;;2.08;;
18251;SDS011;26917;52.328;20.878;2022-07-10T10:32:32;2.75;;;1.95;;
18251;SDS011;26917;52.328;20.878;2022-07-10T10:35:01;4.05;;;2.13;;
18251;SDS011;26917;52.328;20.878;2022-07-10T10:37:34;3.63;;;2.13;;
18251;SDS011;26917;52.328;20.878;2022-07-10T10:43:00;2.33;;;1.98;;
18251;SDS011;26917;52.328;20.878;2022-07-10T10:45:44;4.97;;;2.78;;
18251;SDS011;26917;52.328;20.878;2022-07-10T10:48:13;5.53;;;2.55;;
18251;SDS011;26917;52.328;20.878;2022-07-10T10:51:03;5.45;;;3.03;;
18251;SDS011;26917;52.328;20.878;2022-07-10T10:53:31;3.30;;;2.30;;
18251;SDS011;26917;52.328;20.878;2022-07-10T10:58:59;8.07;;;2.53;;
18251;SDS011;26917;52.328;20.878;2022-07-10T11:01:33;2.42;;;2.20;;
18251;SDS011;26917;52.328;20.878;2022-07-10T11:04:15;2.08;;;1.98;;
18251;SDS011;26917;52.328;20.878;2022-07-10T11:06:46;7.15;;;2.00;;
18251;SDS011;26917;52.328;20.878;2022-07-10T11:09:23;2.47;;;1.95;;
18251;SDS011;26917;52.328;20.878;2022-07-10T11:12:03;3.47;;;2.63;;
18251;SDS011;26917;52.328;20.878;2022-07-10T11:14:44;4.68;;;2.40;;
18251;SDS011;26917;52.328;20.878;2022-07-10T11:17:14;3.15;;;2.22;;
18251;SDS011;26917;52.328;20.878;2022-07-10T11:19:45;3.83;;;2.17;;
18251;SDS011;26917;52.328;20.878;2022-07-10T11:25:31;4.30;;;2.00;;
18251;SDS011;26917;52.328;20.878;2022-07-10T11:28:13;3.72;;;2.42;;
18251;SDS011;26917;52.328;20.878;2022-07-10T11:30:51;5.53;;;2.10;;
18251;SDS011;26917;52.328;20.878;2022-07-10T11:33:21;5.50;;;2.28;;
18251;SDS011;26917;52.328;20.878;2022-07-10T11:35:52;5.03;;;2.70;;
18251;SDS011;26917;52.328;20.878;2022-07-10T11:38:23;4.30;;;2.63;;
18251;SDS011;26917;52.328;20.878;2022-07-10T11:40:52;3.17;;;2.47;;
18251;SDS011;26917;52.328;20.878;2022-07-10T11:43:21;8.20;;;2.67;;
18251;SDS011;26917;52.328;20.878;2022-07-10T11:46:06;9.25;;;2.20;;
18251;SDS011;26917;52.328;20.878;2022-07-10T11:48:37;4.20;;;2.22;;
18251;SDS011;26917;52.328;20.878;2022-07-10T11:54:11;6.80;;;2.45;;
18251;SDS011;26917;52.328;20.878;2022-07-10T11:56:45;4.38;;;2.15;;
18251;SDS011;26917;52.328;20.878;2022-07-10T11:59:15;3.47;;;2.08;;
18251;SDS011;26917;52.328;20.878;2022-07-10T12:01:47;3.78;;;2.25;;
18251;SDS011;26917;52.328;20.878;2022-07-10T12:04:18;5.03;;;1.67;;
18251;SDS011;26917;52.328;20.878;2022-07-10T12:06:48;1.80;;;1.67;;
18251;SDS011;26917;52.328;20.878;2022-07-10T12:09:22;2.38;;;2.17;;
18251;SDS011;26917;52.328;20.878;2022-07-10T12:12:01;2.15;;;1.90;;
18251;SDS011;26917;52.328;20.878;2022-07-10T12:14:40;2.67;;;2.10;;
18251;SDS011;26917;52.328;20.878;2022-07-10T12:17:19;3.38;;;2.70;;
18251;SDS011;26917;52.328;20.878;2022-07-10T12:19:47;4.35;;;2.88;;
18251;SDS011;26917;52.328;20.878;2022-07-10T12:22:19;6.75;;;3.72;;
18251;SDS011;26917;52.328;20.878;2022-07-10T12:24:48;7.50;;;3.70;;
18251;SDS011;26917;52.328;20.878;2022-07-10T12:30:06;7.55;;;4.68;;
18251;SDS011;26917;52.328;20.878;2022-07-10T12:32:36;6.25;;;4.40;;
18251;SDS011;26917;52.328;20.878;2022-07-10T12:35:05;9.88;;;5.65;;
18251;SDS011;26917;52.328;20.878;2022-07-10T12:37:47;10.43;;;6.22;;
18251;SDS011;26917;52.328;20.878;2022-07-10T12:40:32;7.00;;;6.30;;
18251;SDS011;26917;52.328;20.878;2022-07-10T12:43:01;11.35;;;7.18;;
18251;SDS011;26917;52.328;20.878;2022-07-10T12:45:30;12.13;;;8.68;;
18251;SDS011;26917;52.328;20.878;2022-07-10T12:48:00;11.95;;;10.23;;
18251;SDS011;26917;52.328;20.878;2022-07-10T12:50:30;17.92;;;10.48;;
18251;SDS011;26917;52.328;20.878;2022-07-10T12:53:06;16.10;;;8.45;;
18251;SDS011;26917;52.328;20.878;2022-07-10T12:55:35;10.38;;;7.32;;
18251;SDS011;26917;52.328;20.878;2022-07-10T12:58:06;8.10;;;5.85;;
18251;SDS011;26917;52.328;20.878;2022-07-10T13:00:35;6.53;;;4.57;;
18251;SDS011;26917;52.328;20.878;2022-07-10T13:03:18;8.68;;;4.30;;
18251;SDS011;26917;52.328;20.878;2022-07-10T13:05:49;6.93;;;3.95;;
18251;SDS011;26917;52.328;20.878;2022-07-10T13:08:19;19.48;;;4.72;;
18251;SDS011;26917;52.328;20.878;2022-07-10T13:10:50;11.85;;;3.72;;
18251;SDS011;26917;52.328;20.878;2022-07-10T13:13:20;15.13;;;4.60;;
18251;SDS011;26917;52.328;20.878;2022-07-10T13:15:49;16.00;;;4.85;;
18251;SDS011;26917;52.328;20.878;2022-07-10T13:18:21;14.23;;;3.97;;
18251;SDS011;26917;52.328;20.878;2022-07-10T13:20:53;4.90;;;4.40;;
18251;SDS011;26917;52.328;20.878;2022-07-10T13:23:27;11.95;;;4.80;;
18251;SDS011;26917;52.328;20.878;2022-07-10T13:25:56;11.13;;;5.00;;
18251;SDS011;26917;52.328;20.878;2022-07-10T13:28:26;13.18;;;5.53;;
18251;SDS011;26917;52.328;20.878;2022-07-10T13:30:55;14.02;;;6.80;;
18251;SDS011;26917;52.328;20.878;2022-07-10T13:33:26;11.68;;;6.45;;
18251;SDS011;26917;52.328;20.878;2022-07-10T13:35:55;16.05;;;7.43;;
18251;SDS011;26917;52.328;20.878;2022-07-10T13:38:28;17.10;;;8.43;;
18251;SDS011;26917;52.328;20.878;2022-07-10T13:41:04;13.77;;;8.23;;
18251;SDS011;26917;52.328;20.878;2022-07-10T13:43:33;13.32;;;8.68;;
18251;SDS011;26917;52.328;20.878;2022-07-10T13:46:04;12.02;;;9.05;;
18251;SDS011;26917;52.328;20.878;2022-07-10T13:48:34;14.13;;;9.15;;
18251;SDS011;26917;52.328;20.878;2022-07-10T13:51:03;8.50;;;7.05;;
18251;SDS011;26917;52.328;20.878;2022-07-10T13:53:32;10.30;;;5.90;;
18251;SDS011;26917;52.328;20.878;2022-07-10T13:56:02;6.88;;;5.53;;
18251;SDS011;26917;52.328;20.878;2022-07-10T13:58:37;5.28;;;3.90;;
18251;SDS011;26917;52.328;20.878;2022-07-10T14:01:12;6.30;;;3.42;;
18251;SDS011;26917;52.328;20.878;2022-07-10T14:03:51;7.43;;;3.58;;
18251;SDS011;26917;52.328;20.878;2022-07-10T14:06:26;3.95;;;3.25;;
18251;SDS011;26917;52.328;20.878;2022-07-10T14:08:55;3.55;;;3.25;;
18251;SDS011;26917;52.328;20.878;2022-07-10T14:11:27;7.78;;;3.08;;
18251;SDS011;26917;52.328;20.878;2022-07-10T14:13:56;3.65;;;2.92;;
18251;SDS011;26917;52.328;20.878;2022-07-10T14:16:25;3.30;;;3.08;;
18251;SDS011;26917;52.328;20.878;2022-07-10T14:18:55;5.95;;;3.25;;
18251;SDS011;26917;52.328;20.878;2022-07-10T14:21:23;4.07;;;2.63;;
18251;SDS011;26917;52.328;20.878;2022-07-10T14:23:54;5.53;;;3.00;;
18251;SDS011;26917;52.328;20.878;2022-07-10T14:26:23;3.10;;;2.50;;
18251;SDS011;26917;52.328;20.878;2022-07-10T14:28:51;4.40;;;2.38;;
18251;SDS011;26917;52.328;20.878;2022-07-10T14:31:26;2.65;;;2.45;;
18251;SDS011;26917;52.328;20.878;2022-07-10T14:34:00;4.20;;;2.53;;
18251;SDS011;26917;52.328;20.878;2022-07-10T14:36:32;3.00;;;2.67;;
18251;SDS011;26917;52.328;20.878;2022-07-10T14:39:01;3.05;;;2.72;;
18251;SDS011;26917;52.328;20.878;2022-07-10T14:41:29;2.75;;;2.42;;
18251;SDS011;26917;52.328;20.878;2022-07-10T14:43:58;3.30;;;2.90;;
18251;SDS011;26917;52.328;20.878;2022-07-10T14:46:28;2.28;;;2.17;;
18251;SDS011;26917;52.328;20.878;2022-07-10T14:52:09;2.95;;;2.25;;
18251;SDS011;26917;52.328;20.878;2022-07-10T14:54:44;4.95;;;2.85;;
18251;SDS011;26917;52.328;20.878;2022-07-10T14:57:26;3.03;;;2.70;;
18251;SDS011;26917;52.328;20.878;2022-07-10T14:59:54;5.78;;;3.20;;
18251;SDS011;26917;52.328;20.878;2022-07-10T15:02:22;4.70;;;3.60;;
18251;SDS011;26917;52.328;20.878;2022-07-10T15:04:52;3.45;;;3.15;;
18251;SDS011;26917;52.328;20.878;2022-07-10T15:07:22;3.80;;;3.38;;
18251;SDS011;26917;52.328;20.878;2022-07-10T15:09:50;5.28;;;3.83;;
18251;SDS011;26917;52.328;20.878;2022-07-10T15:12:19;3.65;;;3.33;;
18251;SDS011;26917;52.328;20.878;2022-07-10T15:14:47;3.97;;;3.55;;